createdAt,value
2022-11-21T00:00:43.088Z,11.67
2022-11-21T00:03:11.425Z,11.77
2022-11-21T00:05:40.553Z,11.78
2022-11-21T00:08:08.511Z,11.78
2022-11-21T00:10:37.106Z,11.91
2022-11-21T00:13:06.376Z,12.09
2022-11-21T00:15:35.653Z,12.23
2022-11-21T00:18:03.676Z,12.65
2022-11-21T00:20:31.627Z,13.35
2022-11-21T00:22:59.584Z,13.55
2022-11-21T00:25:27.478Z,13.77
2022-11-21T00:27:55.390Z,13.98
2022-11-21T00:30:24.677Z,14.22
2022-11-21T00:32:52.660Z,14.38
2022-11-21T00:35:20.630Z,14.34
2022-11-21T00:37:50.814Z,14.45
2022-11-21T00:40:18.860Z,14.47
2022-11-21T00:42:46.783Z,14.59
2022-11-21T00:45:18.367Z,14.55
2022-11-21T00:47:50.528Z,14.51
2022-11-21T00:50:18.576Z,14.47
2022-11-21T00:52:46.493Z,14.65
2022-11-21T00:55:14.472Z,14.64
2022-11-21T00:57:42.388Z,14.72
2022-11-21T01:00:11.782Z,14.68
2022-11-21T01:02:39.727Z,14.68
2022-11-21T01:05:09.989Z,14.72
2022-11-21T01:07:37.986Z,14.71
2022-11-21T01:10:07.140Z,14.78
2022-11-21T01:12:35.071Z,14.79
2022-11-21T01:15:03.050Z,14.88
2022-11-21T01:17:33.098Z,14.91
2022-11-21T01:20:01.005Z,14.91
2022-11-21T01:22:30.329Z,14.97
2022-11-21T01:24:58.296Z,15.01
2022-11-21T01:27:26.256Z,15.05
2022-11-21T01:29:54.193Z,14.83
2022-11-21T01:32:22.157Z,14.48
2022-11-21T01:34:50.072Z,14.05
2022-11-21T01:37:18.028Z,13.82
2022-11-21T01:39:47.314Z,13.68
2022-11-21T01:42:15.241Z,13.50
2022-11-21T01:44:50.571Z,13.39
2022-11-21T01:47:18.708Z,13.08
2022-11-21T01:49:46.865Z,13.12
2022-11-21T01:52:16.200Z,13.00
2022-11-21T01:54:45.037Z,12.94
2022-11-21T01:57:15.857Z,12.78
2022-11-21T01:59:45.176Z,12.54
2022-11-21T02:02:13.383Z,12.64
2022-11-21T02:04:41.349Z,12.57
2022-11-21T02:07:09.318Z,12.54
2022-11-21T02:09:37.602Z,12.56
2022-11-21T02:12:08.024Z,12.70
2022-11-21T02:14:37.425Z,13.21
2022-11-21T02:17:06.483Z,13.53
2022-11-21T02:19:36.854Z,13.79
2022-11-21T02:22:08.188Z,13.90
2022-11-21T02:24:38.901Z,14.26
2022-11-21T02:27:08.203Z,14.43
2022-11-21T02:29:36.155Z,14.56
2022-11-21T02:32:05.368Z,14.69
2022-11-21T02:34:33.366Z,14.75
2022-11-21T02:37:01.315Z,14.78
2022-11-21T02:39:31.257Z,14.77
2022-11-21T02:42:02.340Z,14.77
2022-11-21T02:44:33.901Z,14.91
2022-11-21T02:47:01.801Z,14.99
2022-11-21T02:49:36.769Z,14.97
2022-11-21T02:52:04.857Z,14.87
2022-11-21T02:54:32.845Z,15.01
2022-11-21T02:57:00.781Z,15.03
2022-11-21T02:59:28.706Z,15.08
2022-11-21T03:01:59.802Z,15.16
2022-11-21T03:04:27.946Z,15.07
2022-11-21T03:06:55.938Z,15.00
2022-11-21T03:09:23.839Z,14.97
2022-11-21T03:11:51.806Z,14.88
2022-11-21T03:14:19.783Z,14.83
2022-11-21T03:16:47.852Z,14.74
2022-11-21T03:19:17.128Z,14.72
2022-11-21T03:21:45.058Z,14.57
2022-11-21T03:24:13.259Z,14.39
2022-11-21T03:26:41.201Z,14.40
2022-11-21T03:29:09.405Z,14.37
2022-11-21T03:31:37.344Z,14.23
2022-11-21T03:34:05.335Z,14.14
2022-11-21T03:36:34.647Z,13.99
2022-11-21T03:39:02.628Z,13.94
2022-11-21T03:41:30.556Z,13.83
2022-11-21T03:43:58.581Z,13.45
2022-11-21T03:46:26.564Z,13.11
2022-11-21T03:48:54.520Z,12.68
2022-11-21T03:51:22.480Z,12.25
2022-11-21T03:53:51.790Z,12.06
2022-11-21T03:56:19.809Z,11.93
2022-11-21T03:58:47.748Z,11.81
2022-11-21T04:01:15.983Z,11.73
2022-11-21T04:03:43.919Z,11.62
2022-11-21T04:06:11.945Z,11.56
2022-11-21T04:08:39.987Z,11.52
2022-11-21T04:11:09.314Z,11.49
2022-11-21T04:13:37.312Z,11.48
2022-11-21T04:16:05.526Z,11.38
2022-11-21T04:18:34.713Z,11.40
2022-11-21T04:21:03.884Z,11.36
2022-11-21T04:23:31.812Z,11.37
2022-11-21T04:25:59.812Z,11.33
2022-11-21T04:28:29.178Z,11.24
2022-11-21T04:31:00.551Z,11.23
2022-11-21T04:33:28.705Z,11.17
2022-11-21T04:35:56.625Z,11.13
2022-11-21T04:38:24.529Z,11.08
2022-11-21T04:40:52.485Z,11.06
2022-11-21T04:43:20.406Z,11.02
2022-11-21T04:45:49.661Z,10.92
2022-11-21T04:48:17.634Z,10.92
2022-11-21T04:50:46.602Z,10.88
2022-11-21T04:53:14.527Z,10.83
2022-11-21T04:55:42.471Z,10.81
2022-11-21T04:58:10.410Z,10.84
2022-11-21T05:00:38.334Z,10.87
2022-11-21T05:03:07.782Z,10.89
2022-11-21T05:05:35.707Z,10.90
2022-11-21T05:08:03.621Z,10.91
2022-11-21T05:10:51.593Z,10.93
2022-11-21T05:13:21.349Z,10.91
2022-11-21T05:15:51.628Z,10.89
2022-11-21T05:18:21.244Z,10.90
2022-11-21T05:20:49.196Z,11.00
2022-11-21T05:23:17.122Z,10.89
2022-11-21T05:25:45.067Z,10.87
2022-11-21T05:28:12.978Z,10.87
2022-11-21T05:30:40.911Z,10.79
2022-11-21T05:33:08.818Z,10.77
2022-11-21T05:35:42.863Z,10.78
2022-11-21T05:38:11.459Z,10.78
2022-11-21T05:40:39.398Z,10.75
2022-11-21T05:43:24.849Z,10.85
2022-11-21T05:45:52.756Z,10.81
2022-11-21T05:48:20.707Z,10.86
2022-11-21T05:50:50.482Z,10.96
2022-11-21T05:53:18.457Z,11.03
2022-11-21T05:55:46.435Z,11.17
2022-11-21T05:58:14.460Z,11.29
2022-11-21T06:00:42.468Z,11.39
2022-11-21T06:03:28.082Z,11.49
2022-11-21T06:06:04.775Z,11.58
2022-11-21T06:08:34.705Z,11.60
2022-11-21T06:11:02.773Z,11.68
2022-11-21T06:13:30.660Z,11.71
2022-11-21T06:16:01.360Z,11.74
2022-11-21T06:18:29.528Z,11.74
2022-11-21T06:21:03.477Z,11.84
2022-11-21T06:23:31.435Z,11.85
2022-11-21T06:25:59.366Z,11.96
2022-11-21T06:28:27.434Z,12.04
2022-11-21T06:30:55.348Z,12.14
2022-11-21T06:33:23.282Z,12.20
2022-11-21T06:35:51.217Z,12.20
2022-11-21T06:38:20.494Z,12.28
2022-11-21T06:40:48.452Z,12.56
2022-11-21T06:43:16.412Z,12.85
2022-11-21T06:45:44.384Z,13.11
2022-11-21T06:48:12.393Z,13.43
2022-11-21T06:50:40.366Z,13.70
2022-11-21T06:53:08.315Z,13.98
2022-11-21T06:55:37.652Z,14.38
2022-11-21T06:58:05.599Z,14.49
2022-11-21T07:00:33.580Z,14.23
2022-11-21T07:03:03.544Z,13.86
2022-11-21T07:05:31.663Z,13.52
2022-11-21T07:08:00.343Z,13.25
2022-11-21T07:10:28.428Z,13.19
2022-11-21T07:13:16.826Z,12.90
2022-11-21T07:15:44.799Z,12.62
2022-11-21T07:18:12.833Z,12.65
2022-11-21T07:20:40.897Z,12.61
2022-11-21T07:23:08.961Z,12.55
2022-11-21T07:25:37.153Z,12.53
2022-11-21T07:28:07.700Z,12.65
2022-11-21T07:30:35.901Z,12.77
2022-11-21T07:33:05.352Z,12.78
2022-11-21T07:35:33.400Z,12.80
2022-11-21T07:38:01.344Z,12.98
2022-11-21T07:40:29.291Z,13.16
2022-11-21T07:43:04.416Z,13.05
2022-11-21T07:45:37.363Z,13.22
2022-11-21T07:48:06.449Z,13.13
2022-11-21T07:50:34.579Z,12.83
2022-11-21T07:53:03.437Z,12.79
2022-11-21T07:55:33.254Z,12.73
2022-11-21T07:58:05.216Z,12.77
2022-11-21T08:00:33.722Z,12.74
2022-11-21T08:03:03.071Z,12.67
2022-11-21T08:05:31.494Z,12.70
2022-11-21T08:07:59.474Z,12.66
2022-11-21T08:10:27.418Z,12.85
2022-11-21T08:12:55.355Z,12.99
2022-11-21T08:15:23.304Z,13.27
2022-11-21T08:17:51.264Z,13.45
2022-11-21T08:20:20.618Z,13.48
2022-11-21T08:22:48.561Z,13.39
2022-11-21T08:25:16.533Z,13.36
2022-11-21T08:27:44.434Z,13.48
2022-11-21T08:30:13.447Z,13.43
2022-11-21T08:32:41.405Z,13.62
2022-11-21T08:35:09.609Z,13.68
2022-11-21T08:37:38.889Z,13.77
2022-11-21T08:40:08.146Z,13.77
2022-11-21T08:42:36.132Z,13.71
2022-11-21T08:45:04.157Z,13.74
2022-11-21T08:47:33.938Z,13.60
2022-11-21T08:50:07.345Z,13.70
2022-11-21T08:52:38.121Z,13.63
2022-11-21T08:55:06.914Z,13.93
2022-11-21T08:57:38.957Z,13.96
2022-11-21T09:00:07.982Z,14.04
2022-11-21T09:02:36.294Z,14.26
2022-11-21T09:05:04.296Z,14.29
2022-11-21T09:07:32.365Z,14.06
2022-11-21T09:10:01.771Z,13.98
2022-11-21T09:12:29.705Z,13.78
2022-11-21T09:15:15.120Z,13.58
2022-11-21T09:18:00.653Z,13.46
2022-11-21T09:20:28.675Z,13.24
2022-11-21T09:22:56.689Z,13.23
2022-11-21T09:25:26.006Z,13.22
2022-11-21T09:27:53.957Z,13.36
2022-11-21T09:30:21.968Z,13.10
2022-11-21T09:32:50.048Z,12.99
2022-11-21T09:35:18.006Z,13.00
2022-11-21T09:37:47.052Z,13.12
2022-11-21T09:40:16.038Z,13.41
2022-11-21T09:43:14.958Z,13.60
2022-11-21T09:45:44.189Z,13.56
2022-11-21T09:48:13.083Z,13.48
2022-11-21T09:50:42.862Z,13.30
2022-11-21T09:53:12.735Z,13.21
2022-11-21T09:55:43.775Z,13.14
2022-11-21T09:58:17.681Z,13.23
2022-11-21T10:00:45.772Z,12.99
2022-11-21T10:03:16.702Z,13.10
2022-11-21T10:05:50.329Z,13.03
2022-11-21T10:08:21.817Z,13.06
2022-11-21T10:10:54.621Z,12.82
2022-11-21T10:13:32.289Z,12.67
2022-11-21T10:16:02.493Z,12.71
2022-11-21T10:18:54.576Z,12.96
2022-11-21T10:21:31.356Z,12.97
2022-11-21T10:24:10.397Z,12.74
2022-11-21T10:26:43.209Z,13.04
2022-11-21T10:29:13.586Z,13.00
2022-11-21T10:31:41.774Z,12.95
2022-11-21T10:34:11.785Z,13.14
2022-11-21T10:36:40.536Z,13.37
2022-11-21T10:39:12.632Z,13.43
2022-11-21T10:41:43.571Z,13.43
2022-11-21T10:44:35.606Z,13.50
2022-11-21T10:47:03.576Z,13.57
2022-11-21T10:49:33.638Z,13.39
2022-11-21T10:52:03.290Z,13.02
2022-11-21T10:54:33.991Z,13.00
2022-11-21T10:57:06.730Z,12.94
2022-11-21T10:59:36.040Z,12.85
2022-11-21T11:02:05.428Z,12.87
2022-11-21T11:04:43.756Z,13.08
2022-11-21T11:07:22.491Z,13.25
2022-11-21T11:09:52.539Z,13.36
2022-11-21T11:12:25.864Z,13.28
2022-11-21T11:14:57.030Z,13.30
2022-11-21T11:17:29.073Z,13.24
2022-11-21T11:20:04.913Z,13.39
2022-11-21T11:22:32.919Z,13.28
2022-11-21T11:25:01.235Z,13.21
2022-11-21T11:27:30.506Z,12.88
2022-11-21T11:30:00.436Z,12.77
2022-11-21T11:32:28.373Z,12.54
2022-11-21T11:35:00.275Z,12.29
2022-11-21T11:37:39.842Z,11.99
2022-11-21T11:40:16.355Z,12.09
2022-11-21T11:43:11.387Z,12.08
2022-11-21T11:46:10.064Z,11.88
2022-11-21T11:49:03.217Z,11.59
2022-11-21T11:51:29.053Z,11.48
2022-11-21T11:54:01.221Z,11.26
2022-11-21T11:56:30.003Z,11.39
2022-11-21T11:59:00.132Z,11.34
2022-11-21T12:01:33.352Z,11.21
2022-11-21T12:04:02.646Z,11.13
2022-11-21T12:07:07.236Z,11.08
2022-11-21T12:09:24.716Z,11.03
2022-11-21T12:12:11.577Z,11.17
2022-11-21T12:15:13.570Z,11.42
2022-11-21T12:17:44.324Z,11.66
2022-11-21T12:20:17.555Z,11.84
2022-11-21T12:22:47.012Z,11.90
2022-11-21T12:25:15.354Z,11.89
2022-11-21T12:27:43.721Z,11.88
2022-11-21T12:30:44.140Z,11.88
2022-11-21T12:33:16.358Z,11.83
2022-11-21T12:36:09.213Z,11.90
2022-11-21T12:39:27.524Z,11.89
2022-11-21T12:42:15.009Z,11.76
2022-11-21T12:44:55.864Z,11.75
2022-11-21T12:47:52.808Z,11.59
2022-11-21T12:50:41.288Z,11.49
2022-11-21T12:53:29.614Z,11.41
2022-11-21T12:56:01.509Z,11.47
2022-11-21T12:58:32.656Z,11.33
2022-11-21T13:01:19.690Z,11.42
2022-11-21T13:03:52.942Z,11.48
2022-11-21T13:06:23.784Z,11.43
2022-11-21T13:08:52.407Z,11.42
2022-11-21T13:11:52.409Z,11.56
2022-11-21T13:14:23.675Z,11.63
2022-11-21T13:16:54.665Z,11.65
2022-11-21T13:19:25.629Z,11.64
2022-11-21T13:21:55.472Z,11.71
2022-11-21T13:25:00.252Z,11.70
2022-11-21T13:27:38.190Z,11.61
2022-11-21T13:30:26.137Z,11.30
2022-11-21T13:32:54.327Z,11.26
2022-11-21T13:36:08.082Z,11.27
2022-11-21T13:39:09.255Z,11.22
2022-11-21T13:42:33.120Z,11.11
2022-11-21T13:45:25.585Z,10.98
2022-11-21T13:48:05.908Z,10.98
2022-11-21T13:51:03.540Z,10.99
2022-11-21T13:53:57.846Z,11.04
2022-11-21T13:56:28.745Z,11.03
2022-11-21T13:59:03.582Z,10.82
2022-11-21T14:01:53.465Z,10.91
2022-11-21T14:04:43.552Z,10.95
2022-11-21T14:07:28.398Z,10.88
2022-11-21T14:09:57.003Z,10.86
2022-11-21T14:12:33.072Z,10.81
2022-11-21T14:15:28.891Z,10.80
2022-11-21T14:17:57.672Z,10.70
2022-11-21T14:20:26.829Z,10.65
2022-11-21T14:22:57.782Z,10.56
2022-11-21T14:25:28.356Z,10.57
2022-11-21T14:27:56.418Z,10.49
2022-11-21T14:30:33.561Z,10.33
2022-11-21T14:33:29.996Z,10.31
2022-11-21T14:36:01.177Z,10.14
2022-11-21T14:38:29.348Z,10.17
2022-11-21T14:41:26.260Z,10.12
2022-11-21T14:44:03.382Z,10.13
2022-11-21T14:46:33.401Z,10.10
2022-11-21T14:49:17.757Z,10.01
2022-11-21T14:51:46.006Z,9.88
2022-11-21T14:54:14.781Z,9.93
2022-11-21T14:56:42.873Z,9.93
2022-11-21T14:59:22.177Z,9.91
2022-11-21T15:01:58.492Z,9.90
2022-11-21T15:04:28.918Z,9.89
2022-11-21T15:06:56.979Z,9.83
2022-11-21T15:12:13.513Z,9.67
2022-11-21T15:14:44.038Z,9.60
2022-11-21T15:17:14.624Z,9.57
2022-11-21T15:19:42.654Z,9.58
2022-11-21T15:22:21.577Z,9.55
2022-11-21T15:24:49.597Z,9.54
2022-11-21T15:27:36.336Z,9.53
2022-11-21T15:30:08.940Z,9.49
2022-11-21T15:32:54.761Z,9.54
2022-11-21T15:35:40.049Z,9.49
2022-11-21T15:38:18.431Z,9.43
2022-11-21T15:41:03.199Z,9.39
2022-11-21T15:43:41.789Z,9.32
2022-11-21T15:46:19.862Z,9.30
2022-11-21T15:48:49.960Z,9.23
2022-11-21T15:51:20.466Z,8.96
2022-11-21T15:54:00.056Z,9.00
2022-11-21T15:56:28.192Z,8.96
2022-11-21T15:58:56.178Z,8.99
2022-11-21T16:01:24.849Z,9.00
2022-11-21T16:03:55.457Z,9.00
2022-11-21T16:06:23.476Z,9.04
2022-11-21T16:08:51.446Z,9.00
2022-11-21T16:11:21.841Z,9.06
2022-11-21T16:13:50.811Z,9.03
2022-11-21T16:16:18.854Z,9.04
2022-11-21T16:18:47.125Z,8.93
2022-11-21T16:21:16.475Z,8.90
2022-11-21T16:23:44.491Z,8.86
2022-11-21T16:26:12.684Z,8.88
2022-11-21T16:28:40.794Z,8.77
2022-11-21T16:31:08.843Z,8.79
2022-11-21T16:33:36.962Z,8.80
2022-11-21T16:36:05.031Z,8.84
2022-11-21T16:38:34.406Z,8.90
2022-11-21T16:41:03.779Z,8.93
2022-11-21T16:43:31.904Z,8.95
2022-11-21T16:46:07.178Z,8.96
2022-11-21T16:48:35.208Z,9.00
2022-11-21T16:51:10.440Z,9.00
2022-11-21T16:53:39.786Z,9.05
2022-11-21T16:56:07.796Z,9.05
2022-11-21T16:58:36.702Z,8.99
2022-11-21T17:01:12.315Z,9.00
2022-11-21T17:03:40.544Z,8.97
2022-11-21T17:06:08.707Z,8.86
2022-11-21T17:08:36.792Z,8.81
2022-11-21T17:11:14.578Z,8.87
2022-11-21T17:13:42.604Z,8.85
2022-11-21T17:16:10.663Z,8.86
2022-11-21T17:18:38.682Z,8.83
2022-11-21T17:21:07.376Z,8.72
2022-11-21T17:23:35.344Z,8.66
2022-11-21T17:26:03.989Z,8.62
2022-11-21T17:28:33.397Z,8.66
2022-11-21T17:31:01.430Z,8.73
2022-11-21T17:33:29.406Z,8.76
2022-11-21T17:35:57.401Z,8.79
2022-11-21T17:38:25.343Z,8.84
2022-11-21T17:41:00.811Z,8.90
2022-11-21T17:43:28.897Z,8.87
2022-11-21T17:46:06.357Z,8.84
2022-11-21T17:48:37.311Z,8.96
2022-11-21T17:51:06.127Z,8.92
2022-11-21T17:53:36.305Z,8.94
2022-11-21T17:56:04.949Z,8.95
2022-11-21T17:58:33.313Z,8.90
2022-11-21T18:01:03.403Z,8.67
2022-11-21T18:03:31.631Z,9.00
2022-11-21T18:06:02.891Z,9.11
2022-11-21T18:08:31.753Z,9.06
2022-11-21T18:10:59.905Z,9.03
2022-11-21T18:13:28.187Z,8.92
2022-11-21T18:15:56.276Z,9.08
2022-11-21T18:18:25.676Z,9.13
2022-11-21T18:20:53.666Z,9.10
2022-11-21T18:23:21.601Z,9.08
2022-11-21T18:25:49.562Z,9.13
2022-11-21T18:28:17.524Z,9.20
2022-11-21T18:30:45.520Z,9.09
2022-11-21T18:33:18.541Z,9.06
2022-11-21T18:35:48.212Z,9.11
2022-11-21T18:38:46.375Z,9.11
2022-11-21T18:41:05.559Z,9.11
2022-11-21T18:43:33.549Z,9.06
2022-11-21T18:46:05.321Z,9.15
2022-11-21T18:48:54.878Z,9.08
2022-11-21T18:51:23.492Z,9.04
2022-11-21T18:53:51.843Z,9.07
2022-11-21T18:56:19.919Z,9.05
2022-11-21T18:58:48.102Z,9.06
2022-11-21T19:01:17.477Z,9.06
2022-11-21T19:03:45.529Z,9.09
2022-11-21T19:06:17.833Z,9.00
2022-11-21T19:08:47.382Z,9.03
2022-11-21T19:11:16.128Z,8.98
2022-11-21T19:13:44.761Z,8.95
2022-11-21T19:16:13.804Z,9.07
2022-11-21T19:18:44.364Z,8.90
2022-11-21T19:21:15.430Z,8.94
2022-11-21T19:23:43.849Z,9.02
2022-11-21T19:26:14.688Z,9.03
2022-11-21T19:28:42.691Z,9.05
2022-11-21T19:31:12.250Z,9.05
2022-11-21T19:33:40.211Z,8.91
2022-11-21T19:36:09.988Z,8.98
2022-11-21T19:38:38.025Z,9.03
2022-11-21T19:41:16.133Z,8.93
2022-11-21T19:43:46.684Z,8.95
2022-11-21T19:46:14.733Z,8.86
2022-11-21T19:48:42.716Z,8.88
2022-11-21T19:51:10.653Z,8.79
2022-11-21T19:53:39.505Z,8.75
2022-11-21T19:56:11.674Z,8.71
2022-11-21T19:58:39.789Z,8.78
2022-11-21T20:01:10.242Z,8.78
2022-11-21T20:03:38.491Z,8.81
2022-11-21T20:06:07.109Z,8.71
2022-11-21T20:08:35.335Z,8.64
2022-11-21T20:11:10.357Z,8.63
2022-11-21T20:13:39.409Z,8.56
2022-11-21T20:16:08.549Z,8.52
2022-11-21T20:18:37.919Z,8.51
2022-11-21T20:21:10.179Z,8.54
2022-11-21T20:23:38.907Z,8.39
2022-11-21T20:26:07.104Z,8.25
2022-11-21T20:28:35.244Z,8.25
2022-11-21T20:31:07.348Z,8.31
2022-11-21T20:36:23.696Z,8.39
2022-11-21T20:38:52.046Z,8.45
2022-11-21T20:41:20.063Z,8.46
2022-11-21T20:44:44.659Z,8.53
2022-11-21T20:46:36.211Z,8.49
2022-11-21T20:49:05.556Z,8.47
2022-11-21T20:54:21.423Z,8.42
2022-11-21T20:56:49.457Z,8.28
2022-11-21T20:59:17.480Z,8.32
2022-11-21T21:01:45.561Z,8.28
2022-11-21T21:04:14.963Z,8.33
2022-11-21T21:06:42.994Z,8.32
2022-11-21T21:09:10.974Z,8.28
2022-11-21T21:11:54.144Z,8.34
2022-11-21T21:14:22.438Z,8.37
2022-11-21T21:16:50.579Z,8.31
2022-11-21T21:19:22.365Z,8.31
2022-11-21T21:21:50.324Z,8.25
2022-11-21T21:24:18.519Z,8.29
2022-11-21T21:26:47.523Z,8.31
2022-11-21T21:29:16.565Z,8.26
2022-11-21T21:31:50.461Z,8.34
2022-11-21T21:34:20.959Z,8.37
2022-11-21T21:36:49.028Z,8.45
2022-11-21T21:39:17.027Z,8.41
2022-11-21T21:41:46.979Z,8.43
2022-11-21T21:44:15.716Z,8.53
2022-11-21T21:46:43.902Z,8.52
2022-11-21T21:49:11.895Z,8.53
2022-11-21T21:51:41.468Z,8.56
2022-11-21T21:54:16.210Z,8.66
2022-11-21T21:56:44.209Z,8.71
2022-11-21T21:59:12.196Z,8.64
2022-11-21T22:01:40.484Z,8.65
2022-11-21T22:04:08.519Z,8.66
2022-11-21T22:06:36.553Z,8.69
2022-11-21T22:09:05.904Z,8.68
2022-11-21T22:11:36.217Z,8.66
2022-11-21T22:14:05.205Z,8.75
2022-11-21T22:16:33.146Z,8.70
2022-11-21T22:19:01.091Z,8.66
2022-11-21T22:21:30.094Z,8.69
2022-11-21T22:26:48.115Z,8.65
2022-11-21T22:29:16.025Z,8.59
2022-11-21T22:31:44.018Z,8.54
2022-11-21T22:34:12.635Z,8.64
2022-11-21T22:36:41.586Z,8.61
2022-11-21T22:39:09.791Z,8.58
2022-11-21T22:41:37.750Z,8.59
2022-11-21T22:44:07.114Z,8.64
2022-11-21T22:46:35.110Z,8.67
2022-11-21T22:49:03.742Z,8.61
2022-11-21T22:51:31.721Z,8.59
2022-11-21T22:53:59.693Z,8.59
2022-11-21T22:56:27.819Z,8.64
2022-11-21T22:58:56.153Z,8.55
2022-11-21T23:01:26.323Z,8.57
2022-11-21T23:03:55.600Z,8.57
2022-11-21T23:06:24.457Z,8.57
2022-11-21T23:08:52.504Z,8.54
2022-11-21T23:11:21.720Z,8.59
2022-11-21T23:13:49.686Z,8.65
2022-11-21T23:16:17.675Z,8.64
2022-11-21T23:18:46.986Z,8.63
2022-11-21T23:21:15.124Z,8.61
2022-11-21T23:23:44.065Z,8.65
2022-11-21T23:26:12.386Z,8.59
2022-11-21T23:28:40.342Z,8.63
2022-11-21T23:31:08.344Z,8.61
2022-11-21T23:33:36.367Z,8.56
2022-11-21T23:36:05.819Z,8.64
2022-11-21T23:38:33.769Z,8.59
2022-11-21T23:41:01.740Z,8.58
2022-11-21T23:43:29.698Z,8.59
2022-11-21T23:45:57.695Z,8.61
2022-11-21T23:48:25.826Z,8.55
2022-11-21T23:50:53.815Z,8.65
2022-11-21T23:53:23.124Z,8.61
2022-11-21T23:55:51.058Z,8.61
2022-11-21T23:58:19.044Z,8.58
